sensor_id;sensor_type;location;lat;lon;timestamp;P1;durP1;ratioP1;P2;durP2;ratioP2
20423;SDS011;10371;49.042;8.002;2022-12-04T00:00:52;22.93;;;17.93;;
20423;SDS011;10371;49.042;8.002;2022-12-04T00:01:52;21.10;;;18.13;;
20423;SDS011;10371;49.042;8.002;2022-12-04T00:02:52;23.73;;;17.77;;
20423;SDS011;10371;49.042;8.002;2022-12-04T00:03:53;24.10;;;18.93;;
20423;SDS011;10371;49.042;8.002;2022-12-04T00:04:57;24.53;;;18.33;;
20423;SDS011;10371;49.042;8.002;2022-12-04T00:07:05;22.40;;;17.37;;
20423;SDS011;10371;49.042;8.002;2022-12-04T00:08:05;24.13;;;18.47;;
20423;SDS011;10371;49.042;8.002;2022-12-04T00:09:05;21.93;;;17.93;;
20423;SDS011;10371;49.042;8.002;2022-12-04T00:10:06;24.60;;;18.83;;
20423;SDS011;10371;49.042;8.002;2022-12-04T00:11:08;24.63;;;19.13;;
20423;SDS011;10371;49.042;8.002;2022-12-04T00:12:10;23.67;;;18.73;;
20423;SDS011;10371;49.042;8.002;2022-12-04T00:13:10;24.47;;;18.43;;
20423;SDS011;10371;49.042;8.002;2022-12-04T00:14:11;24.13;;;17.87;;
20423;SDS011;10371;49.042;8.002;2022-12-04T00:15:11;24.30;;;18.60;;
20423;SDS011;10371;49.042;8.002;2022-12-04T00:16:13;23.67;;;18.13;;
20423;SDS011;10371;49.042;8.002;2022-12-04T00:17:15;21.97;;;17.73;;
20423;SDS011;10371;49.042;8.002;2022-12-04T00:18:15;24.30;;;18.07;;
20423;SDS011;10371;49.042;8.002;2022-12-04T00:19:16;26.10;;;18.77;;
20423;SDS011;10371;49.042;8.002;2022-12-04T00:20:16;24.97;;;19.00;;
20423;SDS011;10371;49.042;8.002;2022-12-04T00:21:17;26.13;;;19.23;;
20423;SDS011;10371;49.042;8.002;2022-12-04T00:22:18;22.67;;;18.20;;
20423;SDS011;10371;49.042;8.002;2022-12-04T00:23:20;23.47;;;18.77;;
20423;SDS011;10371;49.042;8.002;2022-12-04T00:24:20;26.17;;;18.87;;
20423;SDS011;10371;49.042;8.002;2022-12-04T00:25:20;25.00;;;18.70;;
20423;SDS011;10371;49.042;8.002;2022-12-04T00:26:22;23.80;;;18.73;;
20423;SDS011;10371;49.042;8.002;2022-12-04T00:27:26;23.27;;;17.90;;
20423;SDS011;10371;49.042;8.002;2022-12-04T00:28:27;21.80;;;17.90;;
20423;SDS011;10371;49.042;8.002;2022-12-04T00:29:27;22.27;;;17.17;;
20423;SDS011;10371;49.042;8.002;2022-12-04T00:30:29;23.77;;;18.93;;
20423;SDS011;10371;49.042;8.002;2022-12-04T00:31:30;24.43;;;18.83;;
20423;SDS011;10371;49.042;8.002;2022-12-04T00:32:31;25.77;;;18.70;;
20423;SDS011;10371;49.042;8.002;2022-12-04T00:33:31;24.63;;;18.13;;
20423;SDS011;10371;49.042;8.002;2022-12-04T00:34:31;21.97;;;17.00;;
20423;SDS011;10371;49.042;8.002;2022-12-04T00:35:31;21.63;;;17.77;;
20423;SDS011;10371;49.042;8.002;2022-12-04T00:36:32;22.53;;;18.23;;
20423;SDS011;10371;49.042;8.002;2022-12-04T00:37:32;23.90;;;18.50;;
20423;SDS011;10371;49.042;8.002;2022-12-04T00:38:33;22.67;;;17.47;;
20423;SDS011;10371;49.042;8.002;2022-12-04T00:39:34;22.10;;;17.50;;
20423;SDS011;10371;49.042;8.002;2022-12-04T00:40:34;24.03;;;17.87;;
20423;SDS011;10371;49.042;8.002;2022-12-04T00:41:34;20.77;;;16.63;;
20423;SDS011;10371;49.042;8.002;2022-12-04T00:42:35;22.67;;;17.93;;
20423;SDS011;10371;49.042;8.002;2022-12-04T00:43:35;21.73;;;17.30;;
20423;SDS011;10371;49.042;8.002;2022-12-04T00:44:35;23.00;;;18.27;;
20423;SDS011;10371;49.042;8.002;2022-12-04T00:45:36;23.50;;;18.33;;
20423;SDS011;10371;49.042;8.002;2022-12-04T00:46:36;25.00;;;18.63;;
20423;SDS011;10371;49.042;8.002;2022-12-04T00:47:36;20.77;;;16.37;;
20423;SDS011;10371;49.042;8.002;2022-12-04T00:48:36;22.80;;;18.77;;
20423;SDS011;10371;49.042;8.002;2022-12-04T00:49:37;23.63;;;17.53;;
20423;SDS011;10371;49.042;8.002;2022-12-04T00:50:37;21.43;;;17.40;;
20423;SDS011;10371;49.042;8.002;2022-12-04T00:51:37;24.70;;;18.27;;
20423;SDS011;10371;49.042;8.002;2022-12-04T00:52:38;24.10;;;17.60;;
20423;SDS011;10371;49.042;8.002;2022-12-04T00:53:38;22.33;;;17.47;;
20423;SDS011;10371;49.042;8.002;2022-12-04T00:54:39;21.83;;;17.37;;
20423;SDS011;10371;49.042;8.002;2022-12-04T00:55:39;23.33;;;18.10;;
20423;SDS011;10371;49.042;8.002;2022-12-04T00:56:40;24.20;;;18.40;;
20423;SDS011;10371;49.042;8.002;2022-12-04T00:57:41;24.27;;;17.97;;
20423;SDS011;10371;49.042;8.002;2022-12-04T00:58:41;22.27;;;17.77;;
20423;SDS011;10371;49.042;8.002;2022-12-04T00:59:41;20.03;;;16.70;;
20423;SDS011;10371;49.042;8.002;2022-12-04T01:00:42;23.83;;;18.43;;
20423;SDS011;10371;49.042;8.002;2022-12-04T01:01:42;23.90;;;18.00;;
20423;SDS011;10371;49.042;8.002;2022-12-04T01:02:43;22.73;;;17.60;;
20423;SDS011;10371;49.042;8.002;2022-12-04T01:03:44;24.53;;;18.10;;
20423;SDS011;10371;49.042;8.002;2022-12-04T01:04:45;21.17;;;17.27;;
20423;SDS011;10371;49.042;8.002;2022-12-04T01:05:46;23.00;;;17.73;;
20423;SDS011;10371;49.042;8.002;2022-12-04T01:06:46;21.53;;;17.00;;
20423;SDS011;10371;49.042;8.002;2022-12-04T01:07:46;20.90;;;16.87;;
20423;SDS011;10371;49.042;8.002;2022-12-04T01:08:48;21.50;;;16.80;;
20423;SDS011;10371;49.042;8.002;2022-12-04T01:09:49;21.20;;;16.73;;
20423;SDS011;10371;49.042;8.002;2022-12-04T01:10:49;21.70;;;15.80;;
20423;SDS011;10371;49.042;8.002;2022-12-04T01:11:50;20.23;;;16.83;;
20423;SDS011;10371;49.042;8.002;2022-12-04T01:12:50;22.90;;;17.80;;
20423;SDS011;10371;49.042;8.002;2022-12-04T01:13:52;22.17;;;17.37;;
20423;SDS011;10371;49.042;8.002;2022-12-04T01:14:53;21.27;;;17.00;;
20423;SDS011;10371;49.042;8.002;2022-12-04T01:15:53;20.33;;;16.77;;
20423;SDS011;10371;49.042;8.002;2022-12-04T01:16:53;22.90;;;17.17;;
20423;SDS011;10371;49.042;8.002;2022-12-04T01:17:53;22.17;;;17.30;;
20423;SDS011;10371;49.042;8.002;2022-12-04T01:18:54;20.93;;;16.80;;
20423;SDS011;10371;49.042;8.002;2022-12-04T01:19:54;23.73;;;18.00;;
20423;SDS011;10371;49.042;8.002;2022-12-04T01:20:55;20.20;;;16.60;;
20423;SDS011;10371;49.042;8.002;2022-12-04T01:21:55;22.90;;;18.27;;
20423;SDS011;10371;49.042;8.002;2022-12-04T01:22:55;20.60;;;16.40;;
20423;SDS011;10371;49.042;8.002;2022-12-04T01:23:56;22.53;;;16.80;;
20423;SDS011;10371;49.042;8.002;2022-12-04T01:24:57;20.80;;;16.67;;
20423;SDS011;10371;49.042;8.002;2022-12-04T01:25:58;20.47;;;16.97;;
20423;SDS011;10371;49.042;8.002;2022-12-04T01:26:58;22.53;;;17.87;;
20423;SDS011;10371;49.042;8.002;2022-12-04T01:27:58;23.57;;;17.47;;
20423;SDS011;10371;49.042;8.002;2022-12-04T01:28:59;19.57;;;16.23;;
20423;SDS011;10371;49.042;8.002;2022-12-04T01:30:00;22.17;;;16.97;;
20423;SDS011;10371;49.042;8.002;2022-12-04T01:31:04;22.90;;;18.10;;
20423;SDS011;10371;49.042;8.002;2022-12-04T01:32:10;23.77;;;18.03;;
20423;SDS011;10371;49.042;8.002;2022-12-04T01:33:10;21.27;;;16.93;;
20423;SDS011;10371;49.042;8.002;2022-12-04T01:34:11;20.10;;;16.57;;
20423;SDS011;10371;49.042;8.002;2022-12-04T01:35:11;20.30;;;16.70;;
20423;SDS011;10371;49.042;8.002;2022-12-04T01:36:13;21.73;;;17.20;;
20423;SDS011;10371;49.042;8.002;2022-12-04T01:37:14;20.67;;;17.53;;
20423;SDS011;10371;49.042;8.002;2022-12-04T01:38:15;22.23;;;17.67;;
20423;SDS011;10371;49.042;8.002;2022-12-04T01:39:15;20.57;;;17.10;;
20423;SDS011;10371;49.042;8.002;2022-12-04T01:40:16;25.17;;;17.73;;
20423;SDS011;10371;49.042;8.002;2022-12-04T01:41:18;20.37;;;16.60;;
20423;SDS011;10371;49.042;8.002;2022-12-04T01:42:22;20.40;;;16.50;;
20423;SDS011;10371;49.042;8.002;2022-12-04T01:43:22;21.07;;;16.93;;
20423;SDS011;10371;49.042;8.002;2022-12-04T01:44:24;20.67;;;16.23;;
20423;SDS011;10371;49.042;8.002;2022-12-04T01:45:38;20.90;;;16.53;;
20423;SDS011;10371;49.042;8.002;2022-12-04T01:46:42;21.10;;;15.97;;
20423;SDS011;10371;49.042;8.002;2022-12-04T01:47:44;20.90;;;16.17;;
20423;SDS011;10371;49.042;8.002;2022-12-04T01:48:47;19.53;;;15.13;;
20423;SDS011;10371;49.042;8.002;2022-12-04T01:49:51;19.67;;;15.80;;
20423;SDS011;10371;49.042;8.002;2022-12-04T01:50:53;20.20;;;16.67;;
20423;SDS011;10371;49.042;8.002;2022-12-04T01:51:58;19.47;;;15.43;;
20423;SDS011;10371;49.042;8.002;2022-12-04T01:53:02;19.87;;;14.87;;
20423;SDS011;10371;49.042;8.002;2022-12-04T01:54:25;20.70;;;16.07;;
20423;SDS011;10371;49.042;8.002;2022-12-04T01:55:28;20.60;;;15.73;;
20423;SDS011;10371;49.042;8.002;2022-12-04T01:56:35;19.30;;;14.90;;
20423;SDS011;10371;49.042;8.002;2022-12-04T01:57:40;19.90;;;15.23;;
20423;SDS011;10371;49.042;8.002;2022-12-04T01:58:42;20.37;;;15.77;;
20423;SDS011;10371;49.042;8.002;2022-12-04T02:01:01;21.20;;;15.87;;
20423;SDS011;10371;49.042;8.002;2022-12-04T02:02:09;20.87;;;16.17;;
20423;SDS011;10371;49.042;8.002;2022-12-04T02:03:12;19.80;;;15.10;;
20423;SDS011;10371;49.042;8.002;2022-12-04T02:04:13;19.57;;;15.27;;
20423;SDS011;10371;49.042;8.002;2022-12-04T02:05:15;17.83;;;14.77;;
20423;SDS011;10371;49.042;8.002;2022-12-04T02:06:17;19.03;;;15.10;;
20423;SDS011;10371;49.042;8.002;2022-12-04T02:07:18;18.27;;;14.33;;
20423;SDS011;10371;49.042;8.002;2022-12-04T02:08:18;19.63;;;14.63;;
20423;SDS011;10371;49.042;8.002;2022-12-04T02:09:19;18.53;;;14.53;;
20423;SDS011;10371;49.042;8.002;2022-12-04T02:10:23;18.50;;;14.17;;
20423;SDS011;10371;49.042;8.002;2022-12-04T02:12:47;20.20;;;15.47;;
20423;SDS011;10371;49.042;8.002;2022-12-04T02:21:50;20.83;;;16.23;;
20423;SDS011;10371;49.042;8.002;2022-12-04T02:25:07;23.27;;;16.60;;
20423;SDS011;10371;49.042;8.002;2022-12-04T02:27:00;22.10;;;16.67;;
20423;SDS011;10371;49.042;8.002;2022-12-04T02:29:21;21.97;;;16.57;;
20423;SDS011;10371;49.042;8.002;2022-12-04T02:30:41;20.17;;;16.10;;
20423;SDS011;10371;49.042;8.002;2022-12-04T02:31:45;18.23;;;15.00;;
20423;SDS011;10371;49.042;8.002;2022-12-04T02:32:51;19.53;;;16.40;;
20423;SDS011;10371;49.042;8.002;2022-12-04T02:35:26;19.67;;;14.97;;
20423;SDS011;10371;49.042;8.002;2022-12-04T02:36:33;19.30;;;16.07;;
20423;SDS011;10371;49.042;8.002;2022-12-04T02:37:42;20.50;;;15.63;;
20423;SDS011;10371;49.042;8.002;2022-12-04T02:38:49;20.17;;;16.27;;
20423;SDS011;10371;49.042;8.002;2022-12-04T02:42:18;21.00;;;16.93;;
20423;SDS011;10371;49.042;8.002;2022-12-04T02:43:44;20.17;;;16.70;;
20423;SDS011;10371;49.042;8.002;2022-12-04T02:44:58;19.43;;;15.97;;
20423;SDS011;10371;49.042;8.002;2022-12-04T02:46:06;20.57;;;17.50;;
20423;SDS011;10371;49.042;8.002;2022-12-04T02:47:13;18.53;;;15.17;;
20423;SDS011;10371;49.042;8.002;2022-12-04T02:48:15;20.10;;;16.83;;
20423;SDS011;10371;49.042;8.002;2022-12-04T02:49:30;20.53;;;17.00;;
20423;SDS011;10371;49.042;8.002;2022-12-04T02:50:36;17.90;;;15.23;;
20423;SDS011;10371;49.042;8.002;2022-12-04T02:51:39;19.20;;;16.30;;
20423;SDS011;10371;49.042;8.002;2022-12-04T02:52:43;20.17;;;16.13;;
20423;SDS011;10371;49.042;8.002;2022-12-04T02:53:49;21.43;;;16.67;;
20423;SDS011;10371;49.042;8.002;2022-12-04T02:54:55;21.33;;;16.77;;
20423;SDS011;10371;49.042;8.002;2022-12-04T02:56:02;22.43;;;17.53;;
20423;SDS011;10371;49.042;8.002;2022-12-04T02:57:10;21.33;;;17.13;;
20423;SDS011;10371;49.042;8.002;2022-12-04T02:58:16;20.17;;;16.17;;
20423;SDS011;10371;49.042;8.002;2022-12-04T02:59:32;19.50;;;16.53;;
20423;SDS011;10371;49.042;8.002;2022-12-04T03:00:35;20.43;;;17.03;;
20423;SDS011;10371;49.042;8.002;2022-12-04T03:01:39;20.33;;;16.77;;
20423;SDS011;10371;49.042;8.002;2022-12-04T03:02:45;20.07;;;17.00;;
20423;SDS011;10371;49.042;8.002;2022-12-04T03:03:57;20.77;;;17.00;;
20423;SDS011;10371;49.042;8.002;2022-12-04T03:05:04;20.23;;;16.67;;
20423;SDS011;10371;49.042;8.002;2022-12-04T03:06:10;22.40;;;17.83;;
20423;SDS011;10371;49.042;8.002;2022-12-04T03:07:13;20.90;;;17.60;;
20423;SDS011;10371;49.042;8.002;2022-12-04T03:08:20;20.00;;;17.37;;
20423;SDS011;10371;49.042;8.002;2022-12-04T03:09:26;21.50;;;17.97;;
20423;SDS011;10371;49.042;8.002;2022-12-04T03:10:32;23.53;;;18.47;;
20423;SDS011;10371;49.042;8.002;2022-12-04T03:11:37;23.20;;;17.77;;
20423;SDS011;10371;49.042;8.002;2022-12-04T03:13:53;22.93;;;18.23;;
20423;SDS011;10371;49.042;8.002;2022-12-04T03:15:02;19.27;;;16.70;;
20423;SDS011;10371;49.042;8.002;2022-12-04T03:16:12;20.23;;;17.10;;
20423;SDS011;10371;49.042;8.002;2022-12-04T03:17:18;19.50;;;17.23;;
20423;SDS011;10371;49.042;8.002;2022-12-04T03:18:28;21.27;;;17.77;;
20423;SDS011;10371;49.042;8.002;2022-12-04T03:19:36;21.03;;;17.27;;
20423;SDS011;10371;49.042;8.002;2022-12-04T03:20:40;22.10;;;17.30;;
20423;SDS011;10371;49.042;8.002;2022-12-04T03:21:45;22.77;;;17.23;;
20423;SDS011;10371;49.042;8.002;2022-12-04T03:22:58;21.37;;;16.83;;
20423;SDS011;10371;49.042;8.002;2022-12-04T03:24:07;22.47;;;17.07;;
20423;SDS011;10371;49.042;8.002;2022-12-04T03:25:14;20.53;;;17.53;;
20423;SDS011;10371;49.042;8.002;2022-12-04T03:26:19;19.83;;;17.30;;
20423;SDS011;10371;49.042;8.002;2022-12-04T03:27:36;19.33;;;16.33;;
20423;SDS011;10371;49.042;8.002;2022-12-04T03:30:11;18.87;;;15.97;;
20423;SDS011;10371;49.042;8.002;2022-12-04T03:31:15;18.90;;;16.33;;
20423;SDS011;10371;49.042;8.002;2022-12-04T03:32:31;20.60;;;17.13;;
20423;SDS011;10371;49.042;8.002;2022-12-04T03:33:39;22.27;;;17.43;;
20423;SDS011;10371;49.042;8.002;2022-12-04T03:34:47;20.37;;;16.57;;
20423;SDS011;10371;49.042;8.002;2022-12-04T03:35:54;22.57;;;17.13;;
20423;SDS011;10371;49.042;8.002;2022-12-04T03:37:07;21.83;;;17.60;;
20423;SDS011;10371;49.042;8.002;2022-12-04T03:38:17;20.77;;;17.23;;
20423;SDS011;10371;49.042;8.002;2022-12-04T03:40:07;19.67;;;16.57;;
20423;SDS011;10371;49.042;8.002;2022-12-04T03:41:02;21.13;;;16.80;;
20423;SDS011;10371;49.042;8.002;2022-12-04T03:43:22;22.23;;;18.00;;
20423;SDS011;10371;49.042;8.002;2022-12-04T03:45:46;20.57;;;17.20;;
20423;SDS011;10371;49.042;8.002;2022-12-04T03:48:10;21.13;;;18.10;;
20423;SDS011;10371;49.042;8.002;2022-12-04T03:50:37;21.13;;;16.40;;
20423;SDS011;10371;49.042;8.002;2022-12-04T03:51:57;21.50;;;17.87;;
20423;SDS011;10371;49.042;8.002;2022-12-04T03:53:11;21.00;;;17.30;;
20423;SDS011;10371;49.042;8.002;2022-12-04T03:54:19;19.83;;;16.13;;
20423;SDS011;10371;49.042;8.002;2022-12-04T03:55:25;21.53;;;18.10;;
20423;SDS011;10371;49.042;8.002;2022-12-04T03:56:32;21.33;;;17.53;;
20423;SDS011;10371;49.042;8.002;2022-12-04T03:57:39;20.97;;;17.57;;
20423;SDS011;10371;49.042;8.002;2022-12-04T03:58:44;21.63;;;17.73;;
20423;SDS011;10371;49.042;8.002;2022-12-04T03:59:49;21.00;;;17.03;;
20423;SDS011;10371;49.042;8.002;2022-12-04T04:00:55;20.77;;;17.10;;
20423;SDS011;10371;49.042;8.002;2022-12-04T04:01:58;20.80;;;17.37;;
20423;SDS011;10371;49.042;8.002;2022-12-04T04:03:02;20.83;;;17.33;;
20423;SDS011;10371;49.042;8.002;2022-12-04T04:04:10;21.97;;;16.73;;
20423;SDS011;10371;49.042;8.002;2022-12-04T04:05:14;20.40;;;17.23;;
20423;SDS011;10371;49.042;8.002;2022-12-04T04:06:36;21.33;;;17.30;;
20423;SDS011;10371;49.042;8.002;2022-12-04T04:07:59;20.10;;;17.20;;
20423;SDS011;10371;49.042;8.002;2022-12-04T04:09:23;20.87;;;17.10;;
20423;SDS011;10371;49.042;8.002;2022-12-04T04:10:27;20.50;;;17.13;;
20423;SDS011;10371;49.042;8.002;2022-12-04T04:11:30;20.83;;;17.47;;
20423;SDS011;10371;49.042;8.002;2022-12-04T04:12:35;20.23;;;16.87;;
20423;SDS011;10371;49.042;8.002;2022-12-04T04:13:57;19.13;;;15.30;;
20423;SDS011;10371;49.042;8.002;2022-12-04T04:15:20;20.93;;;17.10;;
20423;SDS011;10371;49.042;8.002;2022-12-04T04:17:01;20.67;;;16.87;;
20423;SDS011;10371;49.042;8.002;2022-12-04T04:18:23;21.43;;;17.27;;
20423;SDS011;10371;49.042;8.002;2022-12-04T04:19:45;20.97;;;17.33;;
20423;SDS011;10371;49.042;8.002;2022-12-04T04:21:07;19.30;;;16.50;;
20423;SDS011;10371;49.042;8.002;2022-12-04T04:22:26;21.27;;;17.43;;
20423;SDS011;10371;49.042;8.002;2022-12-04T04:23:46;21.97;;;17.70;;
20423;SDS011;10371;49.042;8.002;2022-12-04T04:25:18;22.83;;;18.20;;
20423;SDS011;10371;49.042;8.002;2022-12-04T04:26:23;20.23;;;16.73;;
20423;SDS011;10371;49.042;8.002;2022-12-04T04:27:26;22.77;;;18.73;;
20423;SDS011;10371;49.042;8.002;2022-12-04T04:28:33;21.70;;;18.57;;
20423;SDS011;10371;49.042;8.002;2022-12-04T04:29:38;20.60;;;16.90;;
20423;SDS011;10371;49.042;8.002;2022-12-04T04:30:38;19.53;;;16.10;;
20423;SDS011;10371;49.042;8.002;2022-12-04T04:32:55;19.43;;;16.30;;
20423;SDS011;10371;49.042;8.002;2022-12-04T04:34:04;21.47;;;17.13;;
20423;SDS011;10371;49.042;8.002;2022-12-04T04:35:20;20.33;;;16.77;;
20423;SDS011;10371;49.042;8.002;2022-12-04T04:36:29;23.37;;;18.07;;
20423;SDS011;10371;49.042;8.002;2022-12-04T04:37:34;19.13;;;15.90;;
20423;SDS011;10371;49.042;8.002;2022-12-04T04:38:44;18.93;;;16.63;;
20423;SDS011;10371;49.042;8.002;2022-12-04T04:40:01;21.70;;;18.07;;
20423;SDS011;10371;49.042;8.002;2022-12-04T04:41:15;19.27;;;15.77;;
20423;SDS011;10371;49.042;8.002;2022-12-04T04:42:20;20.87;;;16.47;;
20423;SDS011;10371;49.042;8.002;2022-12-04T04:44:40;19.90;;;17.17;;
20423;SDS011;10371;49.042;8.002;2022-12-04T04:45:57;20.90;;;16.67;;
20423;SDS011;10371;49.042;8.002;2022-12-04T04:47:04;20.93;;;16.73;;
20423;SDS011;10371;49.042;8.002;2022-12-04T04:48:09;20.10;;;17.20;;
20423;SDS011;10371;49.042;8.002;2022-12-04T04:49:14;20.20;;;17.03;;
20423;SDS011;10371;49.042;8.002;2022-12-04T04:50:17;20.63;;;16.70;;
20423;SDS011;10371;49.042;8.002;2022-12-04T04:51:18;23.23;;;18.67;;
20423;SDS011;10371;49.042;8.002;2022-12-04T04:52:19;21.20;;;17.77;;
20423;SDS011;10371;49.042;8.002;2022-12-04T04:53:23;20.37;;;17.03;;
20423;SDS011;10371;49.042;8.002;2022-12-04T04:54:27;20.83;;;17.43;;
20423;SDS011;10371;49.042;8.002;2022-12-04T04:55:30;20.57;;;17.33;;
20423;SDS011;10371;49.042;8.002;2022-12-04T04:56:38;21.23;;;16.93;;
20423;SDS011;10371;49.042;8.002;2022-12-04T04:57:47;21.43;;;16.90;;
20423;SDS011;10371;49.042;8.002;2022-12-04T04:58:48;21.47;;;17.80;;
20423;SDS011;10371;49.042;8.002;2022-12-04T04:59:48;21.70;;;17.53;;
20423;SDS011;10371;49.042;8.002;2022-12-04T05:01:49;21.00;;;17.47;;
20423;SDS011;10371;49.042;8.002;2022-12-04T05:02:49;21.73;;;18.03;;
20423;SDS011;10371;49.042;8.002;2022-12-04T05:03:49;21.33;;;17.23;;
20423;SDS011;10371;49.042;8.002;2022-12-04T05:04:49;20.83;;;16.97;;
20423;SDS011;10371;49.042;8.002;2022-12-04T05:05:50;21.37;;;18.00;;
20423;SDS011;10371;49.042;8.002;2022-12-04T05:06:50;22.67;;;16.77;;
20423;SDS011;10371;49.042;8.002;2022-12-04T05:07:50;20.67;;;17.17;;
20423;SDS011;10371;49.042;8.002;2022-12-04T05:08:50;22.03;;;17.93;;
20423;SDS011;10371;49.042;8.002;2022-12-04T05:09:51;21.47;;;17.37;;
20423;SDS011;10371;49.042;8.002;2022-12-04T05:10:51;23.17;;;18.37;;
20423;SDS011;10371;49.042;8.002;2022-12-04T05:11:51;21.03;;;17.23;;
20423;SDS011;10371;49.042;8.002;2022-12-04T05:12:52;19.93;;;16.73;;
20423;SDS011;10371;49.042;8.002;2022-12-04T05:13:52;21.17;;;16.83;;
20423;SDS011;10371;49.042;8.002;2022-12-04T05:14:52;19.93;;;17.40;;
20423;SDS011;10371;49.042;8.002;2022-12-04T05:15:56;21.00;;;17.23;;
20423;SDS011;10371;49.042;8.002;2022-12-04T05:17:09;20.53;;;16.83;;
20423;SDS011;10371;49.042;8.002;2022-12-04T05:18:09;21.83;;;17.67;;
20423;SDS011;10371;49.042;8.002;2022-12-04T05:19:10;21.57;;;16.93;;
20423;SDS011;10371;49.042;8.002;2022-12-04T05:20:29;19.20;;;15.37;;
20423;SDS011;10371;49.042;8.002;2022-12-04T05:21:29;20.37;;;17.07;;
20423;SDS011;10371;49.042;8.002;2022-12-04T05:22:31;22.10;;;17.97;;
20423;SDS011;10371;49.042;8.002;2022-12-04T05:23:33;21.57;;;17.47;;
20423;SDS011;10371;49.042;8.002;2022-12-04T05:24:33;19.27;;;17.03;;
20423;SDS011;10371;49.042;8.002;2022-12-04T05:25:34;19.93;;;16.93;;
20423;SDS011;10371;49.042;8.002;2022-12-04T05:26:34;21.13;;;16.77;;
20423;SDS011;10371;49.042;8.002;2022-12-04T05:27:35;18.80;;;16.30;;
20423;SDS011;10371;49.042;8.002;2022-12-04T05:28:35;20.40;;;16.63;;
20423;SDS011;10371;49.042;8.002;2022-12-04T05:29:36;20.50;;;16.97;;
20423;SDS011;10371;49.042;8.002;2022-12-04T05:30:36;21.10;;;17.37;;
20423;SDS011;10371;49.042;8.002;2022-12-04T05:31:37;20.27;;;16.63;;
20423;SDS011;10371;49.042;8.002;2022-12-04T05:32:37;20.60;;;17.00;;
20423;SDS011;10371;49.042;8.002;2022-12-04T05:33:37;20.20;;;16.30;;
20423;SDS011;10371;49.042;8.002;2022-12-04T05:34:38;21.00;;;16.17;;
20423;SDS011;10371;49.042;8.002;2022-12-04T05:35:38;20.00;;;16.77;;
20423;SDS011;10371;49.042;8.002;2022-12-04T05:36:39;19.73;;;16.13;;
20423;SDS011;10371;49.042;8.002;2022-12-04T05:37:39;19.43;;;16.77;;
20423;SDS011;10371;49.042;8.002;2022-12-04T05:38:39;20.83;;;17.27;;
20423;SDS011;10371;49.042;8.002;2022-12-04T05:39:40;18.90;;;16.10;;
20423;SDS011;10371;49.042;8.002;2022-12-04T05:40:40;20.37;;;16.40;;
20423;SDS011;10371;49.042;8.002;2022-12-04T05:41:40;18.33;;;15.53;;
20423;SDS011;10371;49.042;8.002;2022-12-04T05:42:40;18.67;;;15.73;;
20423;SDS011;10371;49.042;8.002;2022-12-04T05:43:41;21.50;;;16.97;;
20423;SDS011;10371;49.042;8.002;2022-12-04T05:44:41;20.53;;;16.93;;
20423;SDS011;10371;49.042;8.002;2022-12-04T05:45:41;20.97;;;16.90;;
20423;SDS011;10371;49.042;8.002;2022-12-04T05:46:41;18.57;;;16.27;;
20423;SDS011;10371;49.042;8.002;2022-12-04T05:47:42;17.93;;;15.63;;
20423;SDS011;10371;49.042;8.002;2022-12-04T05:48:43;20.83;;;17.30;;
20423;SDS011;10371;49.042;8.002;2022-12-04T05:49:43;19.00;;;16.00;;
20423;SDS011;10371;49.042;8.002;2022-12-04T05:50:44;21.50;;;15.77;;
20423;SDS011;10371;49.042;8.002;2022-12-04T05:51:44;19.60;;;15.93;;
20423;SDS011;10371;49.042;8.002;2022-12-04T05:52:44;20.43;;;16.70;;
20423;SDS011;10371;49.042;8.002;2022-12-04T05:53:44;19.60;;;16.27;;
20423;SDS011;10371;49.042;8.002;2022-12-04T05:54:45;19.23;;;15.93;;
20423;SDS011;10371;49.042;8.002;2022-12-04T05:55:52;19.93;;;16.40;;
20423;SDS011;10371;49.042;8.002;2022-12-04T05:56:57;17.70;;;14.77;;
20423;SDS011;10371;49.042;8.002;2022-12-04T05:57:58;19.27;;;16.13;;
20423;SDS011;10371;49.042;8.002;2022-12-04T05:58:58;17.70;;;15.50;;
20423;SDS011;10371;49.042;8.002;2022-12-04T05:59:59;18.80;;;15.20;;
20423;SDS011;10371;49.042;8.002;2022-12-04T06:00:59;19.17;;;16.30;;
20423;SDS011;10371;49.042;8.002;2022-12-04T06:01:59;18.73;;;16.73;;
20423;SDS011;10371;49.042;8.002;2022-12-04T06:02:59;18.47;;;15.50;;
20423;SDS011;10371;49.042;8.002;2022-12-04T06:04:00;19.83;;;15.27;;
20423;SDS011;10371;49.042;8.002;2022-12-04T06:05:00;18.53;;;15.23;;
20423;SDS011;10371;49.042;8.002;2022-12-04T06:06:00;19.70;;;15.43;;
20423;SDS011;10371;49.042;8.002;2022-12-04T06:07:01;18.50;;;15.77;;
20423;SDS011;10371;49.042;8.002;2022-12-04T06:08:01;18.77;;;15.83;;
20423;SDS011;10371;49.042;8.002;2022-12-04T06:09:02;19.23;;;16.47;;
20423;SDS011;10371;49.042;8.002;2022-12-04T06:10:03;18.40;;;15.80;;
20423;SDS011;10371;49.042;8.002;2022-12-04T06:11:10;19.27;;;16.37;;
20423;SDS011;10371;49.042;8.002;2022-12-04T06:12:12;19.23;;;16.37;;
20423;SDS011;10371;49.042;8.002;2022-12-04T06:13:13;17.47;;;15.57;;
20423;SDS011;10371;49.042;8.002;2022-12-04T06:14:14;18.20;;;16.13;;
20423;SDS011;10371;49.042;8.002;2022-12-04T06:15:15;17.70;;;15.80;;
20423;SDS011;10371;49.042;8.002;2022-12-04T06:16:16;17.43;;;14.63;;
20423;SDS011;10371;49.042;8.002;2022-12-04T06:17:18;18.07;;;16.03;;
20423;SDS011;10371;49.042;8.002;2022-12-04T06:18:18;17.17;;;15.03;;
20423;SDS011;10371;49.042;8.002;2022-12-04T06:19:19;17.43;;;15.53;;
20423;SDS011;10371;49.042;8.002;2022-12-04T06:20:21;18.20;;;16.00;;
20423;SDS011;10371;49.042;8.002;2022-12-04T06:21:22;17.77;;;15.67;;
20423;SDS011;10371;49.042;8.002;2022-12-04T06:22:24;18.97;;;15.90;;
20423;SDS011;10371;49.042;8.002;2022-12-04T06:23:24;20.07;;;15.87;;
20423;SDS011;10371;49.042;8.002;2022-12-04T06:24:24;17.23;;;15.00;;
20423;SDS011;10371;49.042;8.002;2022-12-04T06:25:25;17.73;;;15.60;;
20423;SDS011;10371;49.042;8.002;2022-12-04T06:26:25;17.27;;;15.13;;
20423;SDS011;10371;49.042;8.002;2022-12-04T06:27:26;17.00;;;15.20;;
20423;SDS011;10371;49.042;8.002;2022-12-04T06:28:26;18.33;;;15.27;;
20423;SDS011;10371;49.042;8.002;2022-12-04T06:29:26;17.80;;;14.70;;
20423;SDS011;10371;49.042;8.002;2022-12-04T06:30:27;17.67;;;15.60;;
20423;SDS011;10371;49.042;8.002;2022-12-04T06:31:29;17.73;;;15.63;;
20423;SDS011;10371;49.042;8.002;2022-12-04T06:32:29;18.00;;;16.00;;
20423;SDS011;10371;49.042;8.002;2022-12-04T06:33:30;18.83;;;15.90;;
20423;SDS011;10371;49.042;8.002;2022-12-04T06:34:31;18.40;;;14.97;;
20423;SDS011;10371;49.042;8.002;2022-12-04T06:35:31;18.60;;;15.80;;
20423;SDS011;10371;49.042;8.002;2022-12-04T06:36:32;16.90;;;14.83;;
20423;SDS011;10371;49.042;8.002;2022-12-04T06:37:32;18.77;;;15.80;;
20423;SDS011;10371;49.042;8.002;2022-12-04T06:38:33;18.07;;;15.80;;
20423;SDS011;10371;49.042;8.002;2022-12-04T06:39:34;17.77;;;15.17;;
20423;SDS011;10371;49.042;8.002;2022-12-04T06:40:38;17.83;;;15.67;;
20423;SDS011;10371;49.042;8.002;2022-12-04T06:41:38;19.70;;;15.27;;
20423;SDS011;10371;49.042;8.002;2022-12-04T06:42:39;17.73;;;15.00;;
20423;SDS011;10371;49.042;8.002;2022-12-04T06:43:39;17.60;;;15.27;;
20423;SDS011;10371;49.042;8.002;2022-12-04T06:44:40;17.60;;;15.70;;
20423;SDS011;10371;49.042;8.002;2022-12-04T06:45:40;16.33;;;14.47;;